首页
METAR-TAF:

METAR-TAF

机场 :

Ponta Delgada, 亚速尔群岛, 葡萄牙

纬度: 37-44N, 经度: 025-42W, 海拔: 71米

当前天气观测

该预报发布于30分钟前的12:30 UTC
风速8节,风向西转西北
温度 17°C
湿度 68%
气压 1015 hPa
能见度10公里或以上
少量云层高于2000英尺
多云层高于3500英尺

METAR: LPPD 181230Z 29008KT 9999 FEW020 BKN035 17/11 Q1015

时间: 12:00 (13:00 UTC)

预报

该预报发布于1小时和30分钟前的11:30 UTC
预报有效从18日的 12点(UTC)到 19日的 12点(UTC)
风速12节,风向西
能见度10公里或以上
散云层高于2000英尺
成为
从 18日的 16点(UTC)到 18日的 18点(UTC)
散云层高于1500英尺
多云层高于3000英尺
短暂存在
从 18日的 18点(UTC)到 19日的 03点(UTC)
能見度: 5000
散云层高于800英尺
多云层高于1500英尺
雨, 毛毛雨, 轻雾

TAF: LPPD 181130Z 1812/1912 26012KT 9999 SCT020 BECMG 1816/1818 SCT015 BKN030 TEMPO 1818/1903 5000 RADZ BR SCT008 BKN015

超过4000个机场的气象观测和天气预报(METAR&TAF报告)。

可查询的气象台以黄色和红色小点在地图上表示。

将鼠标移到小点上方,可查看气象台名称。

然后点击查看天气观测和预报。

如需切换地图:点击带黑十字的绿色按钮放大地图;点击带横线的绿色按钮缩小地图;或者点击绿色箭头查看邻近地区的地图。


METAR-TAF: